Stony Rapids Airport
CYSF : now visible

Airfield :











YOU CAN JOIN US ON...

 
LOGIN :

Register | Disclaimer

   EN    FR    IT 

 









Legend :    VFR   Marginal VFR   IFR   Intensive IFR   Very Intensive IFR
Visi :
Ceiling :
>= 8 km
>= 3000ft
5 to 8 km
1000 to 3000 ft
1500m to 5 km
500 to 1000 ft
800 to 1500m
200 to 500 ft
< 800m
< 200 ft
Symbols :   Thunderstorms  Fog  Heavy snow  Heavy precipitations  Wind > 20 kt






- Airport Elevation : 805 ft
- IATA code : YSF


CYSF - Stony Rapids

CURRENT METAR :
  • 221007Z AUTO 35004KT 9SM BKN015 M19/M22 A2977 RMK SLP108

EXPIRED METARs :
  • 220900Z AUTO 00000KT 9SM CLR M23/M25 A2973 RMK SLP098
  • 220800Z AUTO VRB03KT 9SM FEW140 SCT160 BKN180 M21/M23 A2970 RMK SLP085

TAF AMD TAF CYSF
Valid from the 22 at 08:00 until the 22 at 18:00 UTC


220854Z 2208/2218 VRB03KT P6SM SCT012 BKN180
TEMPO 2208/2213 5SM -SN BKN012
FM221300 VRB03KT P6SM SKC RMK FCST BASED ON AUTO OBS. NXT FCST BY 221200Z



MET'MAP, your aeronautical weather chart ! - Copyright ORBIFLY December 2007 - Disclaimer

ORBIFLY MET'MAP TEAM :

Programming & Development : Alexandra Zaïnal
Concept & original design : Baudouin d'Aumeries
Assistance for programming : Marc-Olivier Méhu
Technical & hardware support : Manuel Goepfert

Contact : metmap@orbifly.com




SOURCES & CREDITS :

   NOAA       Earth
Advisory